Terminal Aerodrome Forecast
Issued by NWS

Home | Current Version | Previous Version | Text Only | Print | Product List | Glossary On
Versions: 1 2 3 4 5 6 7 8 9 10 11 12 13 14 15 16 17 18 19
000
FTUS43 KLSX 280520
TAFCPS
TAF
KCPS 280520Z 2806/2906 02004KT P6SM SCT025 BKN040
      TEMPO 2806/2810 BKN025
     FM281000 36007KT P6SM BKN025
     FM281200 36007KT P6SM BKN040
     FM281700 36009KT P6SM SCT100
     FM290300 02005KT P6SM FEW200=

USA.gov is the U.S. government's official web portal to all federal, state and local government web resources and services.